createdAt,value
2023-05-13T00:02:16.332Z,101017.81
2023-05-13T00:04:45.740Z,101022.16
2023-05-13T00:07:14.683Z,101014.63
2023-05-13T00:09:43.768Z,101024.53
2023-05-13T00:12:12.825Z,101021.88
2023-05-13T00:14:41.821Z,101016.00
2023-05-13T00:17:14.677Z,101010.28
2023-05-13T00:19:43.437Z,101017.41
2023-05-13T00:22:12.296Z,101007.34
2023-05-13T00:24:41.280Z,101005.94
2023-05-13T00:27:11.479Z,101010.16
2023-05-13T00:29:40.497Z,101009.84
2023-05-13T00:32:09.562Z,101007.91
2023-05-13T00:34:39.478Z,101009.03
2023-05-13T00:37:10.550Z,101011.81
2023-05-13T00:39:39.685Z,101009.69
2023-05-13T00:42:11.300Z,101011.78
2023-05-13T00:44:40.939Z,101011.22
2023-05-13T00:47:12.478Z,101023.94
2023-05-13T00:49:42.572Z,101018.34
2023-05-13T00:52:11.843Z,101020.41
2023-05-13T00:54:40.997Z,101021.81
2023-05-13T00:57:10.084Z,101025.75
2023-05-13T00:59:38.957Z,101024.63
2023-05-13T01:02:11.640Z,101027.00
2023-05-13T01:04:46.024Z,101027.44
2023-05-13T01:07:22.247Z,101036.38
2023-05-13T01:09:57.262Z,101039.19
2023-05-13T01:12:32.938Z,101039.34
2023-05-13T01:15:06.825Z,101038.66
2023-05-13T01:17:41.820Z,101043.25
2023-05-13T01:20:13.080Z,101044.38
2023-05-13T01:22:43.188Z,101032.78
2023-05-13T01:25:12.351Z,101033.91
2023-05-13T01:27:41.944Z,101031.94
2023-05-13T01:30:13.090Z,101030.00
2023-05-13T01:32:42.532Z,101032.66
2023-05-13T01:35:12.611Z,101027.19
2023-05-13T01:37:46.973Z,101028.16
2023-05-13T01:40:31.122Z,101029.97
2023-05-13T01:43:04.303Z,101036.13
2023-05-13T01:45:33.624Z,101035.25
2023-05-13T01:48:03.434Z,101035.00
2023-05-13T01:50:42.719Z,101036.22
2023-05-13T01:53:13.562Z,101049.72
2023-05-13T01:55:42.553Z,101057.06
2023-05-13T01:58:11.718Z,101048.22
2023-05-13T02:00:41.701Z,101052.53
2023-05-13T02:03:10.862Z,101053.94
2023-05-13T02:05:39.972Z,101048.94
2023-05-13T02:08:10.635Z,101046.69
2023-05-13T02:10:41.808Z,101044.16
2023-05-13T02:13:11.001Z,101039.72
2023-05-13T02:15:41.223Z,101039.56
2023-05-13T02:18:10.217Z,101043.13
2023-05-13T02:20:39.274Z,101049.53
2023-05-13T02:23:09.562Z,101052.25
2023-05-13T02:25:38.261Z,101055.19
2023-05-13T02:28:08.750Z,101048.44
2023-05-13T02:30:37.761Z,101054.63
2023-05-13T02:33:08.635Z,101050.47
2023-05-13T02:35:37.566Z,101052.72
2023-05-13T02:38:07.121Z,101047.00
2023-05-13T02:40:36.445Z,101050.25
2023-05-13T02:43:05.755Z,101048.56
2023-05-13T02:45:58.654Z,101052.19
2023-05-13T02:48:28.099Z,101050.63
2023-05-13T02:50:57.090Z,101049.09
2023-05-13T02:53:26.141Z,101046.28
2023-05-13T02:55:58.373Z,101049.38
2023-05-13T02:58:28.577Z,101056.00
2023-05-13T03:00:59.557Z,101052.78
2023-05-13T03:03:29.298Z,101059.50
2023-05-13T03:05:58.495Z,101052.81
2023-05-13T03:08:27.451Z,101053.13
2023-05-13T03:10:55.923Z,101044.72
2023-05-13T03:13:24.848Z,101050.47
2023-05-13T03:15:53.797Z,101049.22
2023-05-13T03:18:24.182Z,101053.28
2023-05-13T03:20:53.743Z,101052.31
2023-05-13T03:23:22.556Z,101049.81
2023-05-13T03:25:53.612Z,101053.56
2023-05-13T03:28:22.598Z,101062.22
2023-05-13T03:30:52.319Z,101054.16
2023-05-13T03:33:21.622Z,101049.38
2023-05-13T03:35:52.077Z,101048.84
2023-05-13T03:38:26.710Z,101045.66
2023-05-13T03:40:55.836Z,101042.97
2023-05-13T03:43:25.001Z,101049.00
2023-05-13T03:45:58.893Z,101047.56
2023-05-13T03:48:28.501Z,101048.44
2023-05-13T03:51:01.666Z,101053.19
2023-05-13T03:53:31.364Z,101061.28
2023-05-13T03:56:00.306Z,101062.53
2023-05-13T03:58:29.922Z,101057.38
2023-05-13T04:01:00.170Z,101066.59
2023-05-13T04:03:54.538Z,101066.84
2023-05-13T04:06:25.122Z,101068.66
2023-05-13T04:08:54.025Z,101067.50
2023-05-13T04:11:22.904Z,101064.25
2023-05-13T04:13:51.642Z,101066.09
2023-05-13T04:16:21.455Z,101066.00
2023-05-13T04:18:50.643Z,101065.63
2023-05-13T04:21:19.543Z,101063.84
2023-05-13T04:23:52.098Z,101067.88
2023-05-13T04:26:21.730Z,101064.56
2023-05-13T04:28:51.008Z,101069.22
2023-05-13T04:31:21.432Z,101062.22
2023-05-13T04:33:50.514Z,101068.88
2023-05-13T04:36:20.207Z,101065.59
2023-05-13T04:38:49.116Z,101067.81
2023-05-13T04:41:21.356Z,101070.41
2023-05-13T04:43:50.935Z,101082.38
2023-05-13T04:46:20.036Z,101081.22
2023-05-13T04:48:51.012Z,101091.53
2023-05-13T04:51:20.812Z,101095.84
2023-05-13T04:53:50.117Z,101095.59
2023-05-13T04:56:21.920Z,101079.56
2023-05-13T04:58:51.165Z,101088.22
2023-05-13T05:01:22.347Z,101108.66
2023-05-13T05:03:52.589Z,101113.41
2023-05-13T05:06:21.985Z,101098.72
2023-05-13T05:08:51.035Z,101092.28
2023-05-13T05:11:21.467Z,101093.34
2023-05-13T05:13:49.992Z,101089.47
2023-05-13T05:16:19.639Z,101096.53
2023-05-13T05:18:48.724Z,101096.38
2023-05-13T05:21:18.790Z,101103.31
2023-05-13T05:23:48.470Z,101098.75
2023-05-13T05:26:17.413Z,101092.25
2023-05-13T05:28:47.706Z,101100.91
2023-05-13T05:31:18.679Z,101096.03
2023-05-13T05:33:47.685Z,101097.63
2023-05-13T05:36:16.635Z,101102.00
2023-05-13T05:38:45.582Z,101104.97
2023-05-13T05:41:14.922Z,101106.53
2023-05-13T05:43:44.072Z,101104.47
2023-05-13T05:46:14.659Z,101095.50
2023-05-13T05:48:43.840Z,101103.63
2023-05-13T05:51:12.774Z,101099.63
2023-05-13T05:53:42.432Z,101099.94
2023-05-13T05:56:13.720Z,101099.41
2023-05-13T05:58:43.259Z,101102.44
2023-05-13T06:01:13.775Z,101101.47
2023-05-13T06:03:42.488Z,101097.28
2023-05-13T06:06:11.758Z,101100.91
2023-05-13T06:08:40.658Z,101096.97
2023-05-13T06:11:11.452Z,101093.28
2023-05-13T06:13:39.982Z,101092.13
2023-05-13T06:16:09.012Z,101094.91
2023-05-13T06:18:41.640Z,101101.16
2023-05-13T06:21:10.634Z,101084.59
2023-05-13T06:23:39.991Z,101098.75
2023-05-13T06:26:08.929Z,101098.19
2023-05-13T06:28:37.384Z,101095.63
2023-05-13T06:31:06.451Z,101097.22
2023-05-13T06:33:35.549Z,101097.13
2023-05-13T06:36:06.746Z,101090.56
2023-05-13T06:38:36.417Z,101092.53
2023-05-13T06:41:06.322Z,101087.81
2023-05-13T06:43:37.008Z,101085.41
2023-05-13T06:46:15.716Z,101095.88
2023-05-13T06:48:45.217Z,101088.84
2023-05-13T06:51:15.603Z,101088.47
2023-05-13T06:53:44.592Z,101097.69
2023-05-13T06:56:13.537Z,101089.56
2023-05-13T06:58:42.224Z,101082.84
2023-05-13T07:01:11.233Z,101087.84
2023-05-13T07:03:40.489Z,101086.41
2023-05-13T07:06:09.634Z,101089.66
2023-05-13T07:08:40.895Z,101086.16
2023-05-13T07:11:09.885Z,101084.84
2023-05-13T07:13:39.261Z,101088.16
2023-05-13T07:16:08.734Z,101080.84
2023-05-13T07:18:37.706Z,101086.53
2023-05-13T07:21:06.964Z,101084.50
2023-05-13T07:23:36.128Z,101087.63
2023-05-13T07:26:09.346Z,101086.03
2023-05-13T07:28:37.972Z,101084.25
2023-05-13T07:31:07.113Z,101082.41
2023-05-13T07:33:37.332Z,101085.72
2023-05-13T07:36:07.195Z,101078.31
2023-05-13T07:38:36.475Z,101078.38
2023-05-13T07:41:07.131Z,101079.00
2023-05-13T07:43:35.509Z,101076.13
2023-05-13T07:46:04.389Z,101076.09
2023-05-13T07:48:33.771Z,101067.56
2023-05-13T07:51:03.396Z,101065.47
2023-05-13T07:53:32.442Z,101069.66
2023-05-13T07:56:01.405Z,101065.69
2023-05-13T07:58:31.417Z,101061.53
2023-05-13T08:01:00.319Z,101057.94
2023-05-13T08:03:29.396Z,101064.38
2023-05-13T08:05:58.648Z,101062.03
2023-05-13T08:08:27.654Z,101067.75
2023-05-13T08:10:56.130Z,101062.16
2023-05-13T08:13:25.750Z,101058.34
2023-05-13T08:15:56.322Z,101057.00
2023-05-13T08:18:25.422Z,101055.34
2023-05-13T08:20:54.289Z,101055.28
2023-05-13T08:23:40.338Z,101054.22
2023-05-13T08:26:12.607Z,101055.88
2023-05-13T08:28:42.566Z,101052.69
2023-05-13T08:31:14.312Z,101054.16
2023-05-13T08:33:46.088Z,101064.75
2023-05-13T08:36:16.481Z,101055.72
2023-05-13T08:38:45.767Z,101063.03
2023-05-13T08:41:15.378Z,101070.25
2023-05-13T08:43:44.586Z,101059.66
2023-05-13T08:46:17.925Z,101070.09
2023-05-13T08:48:47.506Z,101055.97
2023-05-13T08:51:16.564Z,101057.16
2023-05-13T08:53:45.887Z,101051.06
2023-05-13T08:56:14.922Z,101052.72
2023-05-13T08:58:43.536Z,101059.28
2023-05-13T09:01:12.657Z,101062.03
2023-05-13T09:03:57.418Z,101046.81
2023-05-13T09:06:26.426Z,101053.59
2023-05-13T09:08:56.179Z,101055.47
2023-05-13T09:11:25.363Z,101051.78
2023-05-13T09:14:00.476Z,101046.78
2023-05-13T09:16:30.572Z,101041.03
2023-05-13T09:19:01.482Z,101040.72
2023-05-13T09:21:32.728Z,101037.25
2023-05-13T09:24:10.341Z,101028.06
2023-05-13T09:26:43.468Z,101028.06
2023-05-13T09:29:23.830Z,101035.88
2023-05-13T09:31:54.204Z,101018.97
2023-05-13T09:34:31.797Z,101017.31
2023-05-13T09:37:05.228Z,101014.91
2023-05-13T09:39:35.874Z,101011.75
2023-05-13T09:42:05.687Z,101021.22
2023-05-13T09:44:35.311Z,101022.44
2023-05-13T09:47:04.886Z,101013.25
2023-05-13T09:49:35.043Z,101004.59
2023-05-13T09:52:10.098Z,101012.31
2023-05-13T09:54:39.474Z,101009.28
2023-05-13T09:57:08.449Z,101007.31
2023-05-13T09:59:37.453Z,100996.91
2023-05-13T10:02:07.882Z,100987.63
2023-05-13T10:04:37.586Z,100983.94
2023-05-13T10:07:07.489Z,100992.69
2023-05-13T10:09:37.952Z,100981.53
2023-05-13T10:12:09.889Z,100986.72
2023-05-13T10:14:39.337Z,100986.59
2023-05-13T10:17:09.624Z,100994.97
2023-05-13T10:19:39.542Z,100985.03
2023-05-13T10:22:08.695Z,100986.44
2023-05-13T10:24:39.218Z,100991.22
2023-05-13T10:27:08.609Z,100992.09
2023-05-13T10:29:39.246Z,100990.00
2023-05-13T10:32:09.730Z,100989.16
2023-05-13T10:34:39.788Z,100990.41
2023-05-13T10:37:38.812Z,100992.66
2023-05-13T10:40:33.942Z,100984.38
2023-05-13T10:43:12.634Z,100986.44
2023-05-13T10:45:41.594Z,100989.72
2023-05-13T10:48:13.650Z,100981.44
2023-05-13T10:50:53.240Z,100984.28
2023-05-13T10:53:25.373Z,100980.50
2023-05-13T10:55:55.466Z,100972.47
2023-05-13T10:58:30.041Z,100971.34
2023-05-13T11:01:15.044Z,100975.75
2023-05-13T11:03:46.651Z,100965.88
2023-05-13T11:06:19.638Z,100959.84
2023-05-13T11:08:49.710Z,100976.78
2023-05-13T11:11:18.815Z,100971.44
2023-05-13T11:13:47.611Z,100968.06
2023-05-13T11:16:16.586Z,100968.19
2023-05-13T11:18:46.075Z,100976.19
2023-05-13T11:21:15.284Z,100978.03
2023-05-13T11:23:58.127Z,100976.56
2023-05-13T11:26:27.262Z,100984.25
2023-05-13T11:29:00.681Z,100979.06
2023-05-13T11:31:30.570Z,100984.50
2023-05-13T11:34:10.561Z,100976.06
2023-05-13T11:36:41.093Z,100974.88
2023-05-13T11:39:13.599Z,100964.53
2023-05-13T11:41:43.938Z,100962.91
2023-05-13T11:44:14.979Z,100964.75
2023-05-13T11:46:53.856Z,100953.66
2023-05-13T11:49:33.639Z,100965.56
2023-05-13T11:52:03.105Z,100966.28
2023-05-13T11:54:33.529Z,100965.72
2023-05-13T11:57:02.786Z,100968.88
2023-05-13T11:59:41.720Z,100967.13
2023-05-13T12:02:16.879Z,100967.97
2023-05-13T12:04:45.868Z,100967.38
2023-05-13T12:07:15.249Z,100964.31
2023-05-13T12:09:45.975Z,100966.94
2023-05-13T12:12:14.923Z,100951.72
2023-05-13T12:14:44.588Z,100952.97
2023-05-13T12:17:14.161Z,100945.22
2023-05-13T12:19:44.164Z,100945.03
2023-05-13T12:22:13.191Z,100943.50
2023-05-13T12:24:42.181Z,100938.59
2023-05-13T12:27:13.179Z,100937.22
2023-05-13T12:29:43.405Z,100934.59
2023-05-13T12:32:13.119Z,100932.19
2023-05-13T12:34:41.676Z,100936.72
2023-05-13T12:37:12.540Z,100931.47
2023-05-13T12:39:42.798Z,100938.41
2023-05-13T12:42:19.271Z,100940.28
2023-05-13T12:44:48.509Z,100933.13
2023-05-13T12:47:20.263Z,100931.31
2023-05-13T12:49:55.161Z,100927.41
2023-05-13T12:52:24.174Z,100932.97
2023-05-13T12:54:53.124Z,100926.75
2023-05-13T12:57:24.477Z,100937.84
2023-05-13T12:59:53.467Z,100931.22
2023-05-13T13:02:22.294Z,100923.50
2023-05-13T13:04:50.883Z,100918.81
2023-05-13T13:07:19.876Z,100936.75
2023-05-13T13:09:48.900Z,100925.09
2023-05-13T13:12:17.933Z,100914.50
2023-05-13T13:14:48.291Z,100923.41
2023-05-13T13:17:17.358Z,100923.22
2023-05-13T13:19:45.878Z,100905.34
2023-05-13T13:22:14.858Z,100898.53
2023-05-13T13:24:43.761Z,100915.19
2023-05-13T13:27:13.270Z,100913.94
2023-05-13T13:29:42.256Z,100906.81
2023-05-13T13:32:13.461Z,100899.06
2023-05-13T13:34:42.034Z,100905.56
2023-05-13T13:37:11.003Z,100902.66
2023-05-13T13:39:41.113Z,100895.66
2023-05-13T13:42:10.038Z,100901.31
2023-05-13T13:44:39.635Z,100897.38
2023-05-13T13:47:08.681Z,100893.97
2023-05-13T13:49:38.673Z,100897.63
2023-05-13T13:52:08.009Z,100903.28
2023-05-13T13:54:37.351Z,100893.81
2023-05-13T13:57:07.096Z,100899.25
2023-05-13T13:59:36.094Z,100901.03
2023-05-13T14:02:05.981Z,100903.84
2023-05-13T14:04:36.026Z,100900.25
2023-05-13T14:07:08.109Z,100902.34
2023-05-13T14:09:37.080Z,100902.75
2023-05-13T14:12:07.270Z,100890.53
2023-05-13T14:14:36.161Z,100895.34
2023-05-13T14:17:05.218Z,100889.59
2023-05-13T14:19:33.687Z,100889.28
2023-05-13T14:22:02.616Z,100892.72
2023-05-13T14:24:33.218Z,100877.31
2023-05-13T14:27:02.297Z,100892.34
2023-05-13T14:29:31.335Z,100883.81
2023-05-13T14:32:02.277Z,100874.56
2023-05-13T14:34:31.012Z,100883.84
2023-05-13T14:37:00.081Z,100889.09
2023-05-13T14:39:30.495Z,100875.66
2023-05-13T14:42:04.024Z,100883.09
2023-05-13T14:44:33.788Z,100884.41
2023-05-13T14:47:04.978Z,100879.22
2023-05-13T14:49:33.499Z,100897.94
2023-05-13T14:52:02.421Z,100886.78
2023-05-13T14:54:35.771Z,100889.28
2023-05-13T14:57:07.918Z,100892.59
2023-05-13T14:59:37.094Z,100879.75
2023-05-13T15:02:06.554Z,100880.66
2023-05-13T15:04:35.135Z,100880.06
2023-05-13T15:07:04.779Z,100877.28
2023-05-13T15:09:33.729Z,100880.06
2023-05-13T15:12:02.630Z,100880.28
2023-05-13T15:14:33.044Z,100874.28
2023-05-13T15:17:02.161Z,100877.22
2023-05-13T15:19:31.720Z,100886.34
2023-05-13T15:22:00.690Z,100881.97
2023-05-13T15:24:29.930Z,100889.53
2023-05-13T15:26:59.120Z,100881.19
2023-05-13T15:29:28.728Z,100885.06
2023-05-13T15:31:59.149Z,100889.34
2023-05-13T15:34:28.297Z,100900.06
2023-05-13T15:36:57.562Z,100902.72
2023-05-13T15:39:26.802Z,100895.50
2023-05-13T15:41:56.353Z,100894.50
2023-05-13T15:44:25.321Z,100901.84
2023-05-13T15:46:54.156Z,100896.63
2023-05-13T15:49:24.744Z,100894.47
2023-05-13T15:51:55.720Z,100897.97
2023-05-13T15:54:24.914Z,100902.00
2023-05-13T15:56:55.800Z,100898.72
2023-05-13T15:59:25.444Z,100905.94
2023-05-13T16:01:54.139Z,100901.41
2023-05-13T16:04:24.814Z,100898.97
2023-05-13T16:06:53.859Z,100903.69
2023-05-13T16:09:22.912Z,100897.75
2023-05-13T16:11:51.877Z,100895.25
2023-05-13T16:14:20.834Z,100893.03
2023-05-13T16:16:49.575Z,100884.44
2023-05-13T16:19:18.908Z,100883.63
2023-05-13T16:21:49.704Z,100886.56
2023-05-13T16:24:19.094Z,100886.50
2023-05-13T16:26:48.434Z,100879.06
2023-05-13T16:29:17.522Z,100874.22
2023-05-13T16:31:46.180Z,100869.16
2023-05-13T16:34:15.356Z,100870.72
2023-05-13T16:36:44.449Z,100877.22
2023-05-13T16:39:15.014Z,100873.66
2023-05-13T16:41:44.092Z,100859.91
2023-05-13T16:44:13.181Z,100871.63
2023-05-13T16:46:41.898Z,100875.28
2023-05-13T16:49:10.826Z,100876.28
2023-05-13T16:51:39.884Z,100876.47
2023-05-13T16:54:09.087Z,100872.06
2023-05-13T16:56:39.563Z,100866.78
2023-05-13T16:59:10.100Z,100874.97
2023-05-13T17:01:38.756Z,100873.50
2023-05-13T17:04:07.841Z,100868.41
2023-05-13T17:06:37.023Z,100876.63
2023-05-13T17:09:07.253Z,100869.41
2023-05-13T17:11:38.918Z,100869.75
2023-05-13T17:14:08.096Z,100871.44
2023-05-13T17:16:37.130Z,100888.56
2023-05-13T17:19:06.355Z,100895.97
2023-05-13T17:21:35.333Z,100907.09
2023-05-13T17:24:04.484Z,100924.03
2023-05-13T17:26:34.583Z,100930.88
2023-05-13T17:29:06.212Z,100943.84
2023-05-13T17:31:35.179Z,100940.16
2023-05-13T17:34:04.403Z,100935.56
2023-05-13T17:36:34.313Z,100956.84
2023-05-13T17:39:03.504Z,100929.63
2023-05-13T17:41:32.565Z,100977.22
2023-05-13T17:44:01.586Z,100999.50
2023-05-13T17:46:31.651Z,101049.00
2023-05-13T17:49:00.694Z,100972.94
2023-05-13T17:51:29.618Z,100931.72
2023-05-13T17:53:58.629Z,100921.44
2023-05-13T17:56:27.639Z,100918.19
2023-05-13T17:58:56.278Z,100928.75
2023-05-13T18:01:25.208Z,100920.97
2023-05-13T18:03:55.641Z,100929.13
2023-05-13T18:06:24.275Z,100918.22
2023-05-13T18:08:53.158Z,100915.75
2023-05-13T18:11:22.886Z,100916.75
2023-05-13T18:13:51.884Z,100917.13
2023-05-13T18:16:21.185Z,100924.91
2023-05-13T18:18:50.253Z,100920.34
2023-05-13T18:21:20.851Z,100922.91
2023-05-13T18:23:49.885Z,100921.47
2023-05-13T18:26:18.793Z,100927.16
2023-05-13T18:28:47.513Z,100927.03
2023-05-13T18:31:16.623Z,100934.56
2023-05-13T18:33:45.690Z,100933.94
2023-05-13T18:36:14.707Z,100929.63
2023-05-13T18:38:46.038Z,100937.31
2023-05-13T18:41:15.179Z,100938.00
2023-05-13T18:43:43.807Z,100945.38
2023-05-13T18:46:12.947Z,100941.03
2023-05-13T18:48:41.858Z,100944.22
2023-05-13T18:51:11.625Z,100935.38
2023-05-13T18:53:42.868Z,100936.56
2023-05-13T18:56:13.381Z,100931.69
2023-05-13T18:58:42.127Z,100936.91
2023-05-13T19:01:12.654Z,100941.44
2023-05-13T19:03:42.044Z,100935.28
2023-05-13T19:06:11.134Z,100935.13
2023-05-13T19:08:40.296Z,100935.84
2023-05-13T19:11:09.611Z,100932.91
2023-05-13T19:13:46.705Z,100931.53
2023-05-13T19:16:16.910Z,100937.56
2023-05-13T19:18:46.002Z,100938.75
2023-05-13T19:21:15.036Z,100940.41
2023-05-13T19:23:43.999Z,100937.59
2023-05-13T19:26:13.029Z,100941.25
2023-05-13T19:28:43.920Z,100940.59
2023-05-13T19:31:13.163Z,100942.72
2023-05-13T19:33:44.658Z,100948.88
2023-05-13T19:36:14.999Z,100954.72
2023-05-13T19:38:44.269Z,100953.09
2023-05-13T19:41:13.261Z,100954.47
2023-05-13T19:43:43.316Z,100949.09
2023-05-13T19:46:12.628Z,100950.75
2023-05-13T19:48:41.602Z,100951.06
2023-05-13T19:51:10.624Z,100948.22
2023-05-13T19:53:39.596Z,100962.59
2023-05-13T19:56:08.696Z,100954.25
2023-05-13T19:58:37.316Z,100959.06
2023-05-13T20:01:07.879Z,100948.91
2023-05-13T20:03:37.035Z,100951.41
2023-05-13T20:06:06.158Z,100955.41
2023-05-13T20:08:36.068Z,100951.22
2023-05-13T20:11:04.960Z,100950.22
2023-05-13T20:13:33.527Z,100952.66
2023-05-13T20:16:02.829Z,100952.00
2023-05-13T20:18:33.470Z,100954.00
2023-05-13T20:21:02.614Z,100952.31
2023-05-13T20:23:31.706Z,100949.28
2023-05-13T20:26:01.010Z,100948.75
2023-05-13T20:28:29.730Z,100949.63
2023-05-13T20:30:58.765Z,100948.25
2023-05-13T20:33:27.805Z,100946.72
2023-05-13T20:35:58.620Z,100947.72
2023-05-13T20:38:27.584Z,100947.91
2023-05-13T20:40:56.290Z,100948.13
2023-05-13T20:43:25.272Z,100945.88
2023-05-13T20:45:54.238Z,100945.06
2023-05-13T20:48:23.263Z,100954.22
2023-05-13T20:51:03.714Z,100942.88
2023-05-13T20:53:33.242Z,100944.53
2023-05-13T20:56:03.663Z,100944.28
2023-05-13T20:58:32.297Z,100950.34
2023-05-13T21:01:02.930Z,100947.81
2023-05-13T21:03:32.092Z,100944.94
2023-05-13T21:06:02.504Z,100948.38
2023-05-13T21:08:31.088Z,100940.41
2023-05-13T21:11:00.116Z,100946.94
2023-05-13T21:13:28.658Z,100944.19
2023-05-13T21:15:57.651Z,100944.34
2023-05-13T21:18:26.773Z,100946.53
2023-05-13T21:20:55.776Z,100940.19
2023-05-13T21:23:26.128Z,100939.94
2023-05-13T21:25:54.597Z,100939.38
2023-05-13T21:28:24.136Z,100936.09
2023-05-13T21:30:53.182Z,100939.75
2023-05-13T21:33:22.010Z,100935.59
2023-05-13T21:35:51.747Z,100929.38
2023-05-13T21:38:20.685Z,100936.53
2023-05-13T21:40:50.727Z,100933.63
2023-05-13T21:43:19.300Z,100939.06
2023-05-13T21:45:49.717Z,100937.19
2023-05-13T21:48:19.380Z,100932.16
2023-05-13T21:50:48.556Z,100932.47
2023-05-13T21:53:17.490Z,100925.78
2023-05-13T21:55:45.986Z,100924.72
2023-05-13T21:58:16.394Z,100925.34
2023-05-13T22:00:46.070Z,100928.59
2023-05-13T22:03:15.052Z,100936.91
2023-05-13T22:05:44.866Z,100940.00
2023-05-13T22:08:13.871Z,100945.03
2023-05-13T22:10:42.447Z,100932.31
2023-05-13T22:13:11.503Z,100946.00
2023-05-13T22:15:42.124Z,100938.19
2023-05-13T22:18:11.414Z,100937.88
2023-05-13T22:20:40.405Z,100926.84
2023-05-13T22:23:09.424Z,100933.53
2023-05-13T22:25:38.105Z,100935.28
2023-05-13T22:28:08.032Z,100932.91
2023-05-13T22:30:37.065Z,100927.59
2023-05-13T22:33:07.607Z,100933.38
2023-05-13T22:35:37.247Z,100932.81
2023-05-13T22:38:06.251Z,100928.91
2023-05-13T22:40:35.292Z,100939.03
2023-05-13T22:43:04.317Z,100932.59
2023-05-13T22:45:33.285Z,100934.88
2023-05-13T22:48:02.230Z,100929.84
2023-05-13T22:50:32.689Z,100936.56
2023-05-13T22:53:01.879Z,100937.50
2023-05-13T22:55:30.516Z,100931.97
2023-05-13T22:57:59.626Z,100934.06
2023-05-13T23:00:28.690Z,100920.75
2023-05-13T23:02:57.825Z,100928.38
2023-05-13T23:05:27.087Z,100926.22
2023-05-13T23:07:57.000Z,100916.31
2023-05-13T23:10:26.453Z,100931.44
2023-05-13T23:12:55.488Z,100922.38
2023-05-13T23:15:24.347Z,100931.41
2023-05-13T23:17:53.360Z,100926.66
2023-05-13T23:20:22.798Z,100925.66
2023-05-13T23:22:51.681Z,100945.84
2023-05-13T23:25:22.116Z,100938.78
2023-05-13T23:27:52.324Z,100937.41
2023-05-13T23:30:21.657Z,100939.41
2023-05-13T23:32:51.135Z,100929.41
2023-05-13T23:35:20.059Z,100937.19
2023-05-13T23:37:48.657Z,100931.47
2023-05-13T23:40:17.849Z,100933.28
2023-05-13T23:42:48.250Z,100940.00
2023-05-13T23:45:17.232Z,100941.56
2023-05-13T23:47:46.285Z,100935.00
2023-05-13T23:50:15.230Z,100943.78
2023-05-13T23:52:44.352Z,100934.16
2023-05-13T23:55:13.449Z,100941.81
2023-05-13T23:57:42.497Z,100935.09
